New Richmond, Wisconsin
Current Conditions -  °F | °C
As of 3:35 PM on Thursday 23 Oct 2014 (Local Time) from KRNH Reporting Station
Scattered Clouds Scattered Clouds  
Wind Chill: 60°   Ceiling: Unl
Heat Index: 60°   Visibility: 10mi
Dew Point: 51°   Wind: 5mph
Humidity: 70%   Direction: 160°SSE
Pressure: 29.98"   Gusts: NA
Location:  45.12°N, 92.54°W
Report Text: KRNH 232035Z AUTO 16004KT 10SM SCT018 16/10 A2998 RMK AO2 T01570103
Loading
Personal Weather Stations






























Interactive Weather Map
Tropical Storm Tracking
New forecast layout! Learn more

10-Day Weather Forecast

Advertisements
Track Severe Weather on mobile